Time;durP1;ratioP1;P1;durP2;ratioP2;P2;SDS_P1;SDS_P2;PMS_P1;PMS_P2;Temp;Humidity;BMP_temperature;BMP_pressure;BME280_temperature;BME280_humidity;BME280_pressure;Samples;Min_cycle;Max_cycle;Signal;HPM_P1;HPM_P2
2022/06/20 00:01:08;;;;;;;2.92;0.28;;;;;;;23.23;45.28;100050.74;1657414;85;21566;-75
2022/06/20 00:03:41;;;;;;;0.98;0.40;;;;;;;23.22;45.32;100055.90;1657285;85;21035;-75
2022/06/20 00:06:14;;;;;;;2.77;0.40;;;;;;;23.19;45.35;100055.92;1659656;85;21523;-74
2022/06/20 00:08:41;;;;;;;0.70;0.40;;;;;;;23.13;45.40;100056.49;1652698;85;21335;-75
2022/06/20 00:11:14;;;;;;;0.80;0.50;;;;;;;23.05;45.63;100055.69;1656665;84;21062;-75
2022/06/20 00:13:43;;;;;;;1.75;0.55;;;;;;;23.01;45.64;100060.03;1674386;83;21047;-76
2022/06/20 00:16:17;;;;;;;2.85;0.40;;;;;;;22.97;45.68;100060.87;1674942;83;21216;-75
2022/06/20 00:18:45;;;;;;;5.72;0.30;;;;;;;22.92;45.82;100060.34;1662669;83;21007;-74
2022/06/20 00:21:18;;;;;;;2.90;0.37;;;;;;;22.88;45.88;100060.63;1666982;83;21046;-78
2022/06/20 00:23:46;;;;;;;2.87;0.20;;;;;;;22.87;45.80;100060.38;1644360;81;21015;-75
2022/06/20 00:26:15;;;;;;;2.70;0.30;;;;;;;22.85;45.70;100063.89;1625739;85;21139;-75
2022/06/20 00:28:44;;;;;;;1.10;0.30;;;;;;;22.82;45.67;100061.74;1638063;85;21631;-75
2022/06/20 00:31:12;;;;;;;2.58;0.30;;;;;;;22.79;45.64;100056.84;1685111;83;21067;-75
2022/06/20 00:33:38;;;;;;;1.50;0.20;;;;;;;22.78;45.63;100061.48;1693359;82;21049;-75
2022/06/20 00:36:06;;;;;;;4.92;0.40;;;;;;;22.78;45.56;100060.67;1676658;83;21088;-76
2022/06/20 00:38:35;;;;;;;4.00;0.30;;;;;;;22.48;45.56;100016.20;1638028;85;21151;-75
2022/06/20 00:41:16;;;;;;;3.50;0.20;;;;;;;22.72;45.72;100060.68;1658052;83;22195;-76
2022/06/20 00:43:49;;;;;;;3.77;0.47;;;;;;;22.68;45.71;100056.89;1685328;83;21097;-74
2022/06/20 00:46:47;;;;;;;0.35;0.20;;;;;;;22.66;45.72;100056.36;1669752;83;21117;-78
2022/06/20 00:49:22;;;;;;;5.35;0.30;;;;;;;22.63;45.80;100054.73;1665845;83;21009;-74
2022/06/20 00:52:06;;;;;;;5.05;0.40;;;;;;;22.59;45.82;100053.11;1627980;86;21543;-75
2022/06/20 00:54:50;;;;;;;0.65;0.20;;;;;;;22.56;45.65;100048.22;1669222;83;21067;-76
2022/06/20 00:57:27;;;;;;;0.62;0.15;;;;;;;22.53;45.57;100051.50;1731335;81;21580;-75
2022/06/20 01:00:12;;;;;;;0.55;0.10;;;;;;;22.48;45.47;100044.72;1720708;81;21067;-74
2022/06/20 01:02:55;;;;;;;0.75;0.17;;;;;;;22.46;45.43;100040.10;1684674;83;21055;-74
2022/06/20 01:05:39;;;;;;;1.30;0.30;;;;;;;22.44;45.11;100045.80;1648091;86;21171;-73
2022/06/20 01:08:25;;;;;;;0.95;0.30;;;;;;;22.43;44.96;100038.73;1664023;84;21083;-74
2022/06/20 01:10:57;;;;;;;0.72;0.20;;;;;;;22.42;44.74;100034.41;1685217;83;21578;-74
2022/06/20 01:13:25;;;;;;;0.90;0.20;;;;;;;22.43;44.68;100035.21;1655996;84;21020;-74
2022/06/20 01:16:02;;;;;;;2.47;0.28;;;;;;;22.42;44.50;100036.31;1684922;83;21131;-73
2022/06/20 01:18:32;;;;;;;0.65;0.20;;;;;;;22.42;44.33;100034.95;1675423;83;21110;-73
2022/06/20 01:21:00;;;;;;;3.85;0.20;;;;;;;22.39;44.29;100024.63;1669272;83;21048;-72
2022/06/20 01:24:10;;;;;;;1.47;0.23;;;;;;;22.36;44.14;100026.01;1655079;84;21552;-74
2022/06/20 01:26:48;;;;;;;4.03;0.20;;;;;;;22.35;44.27;100022.45;1671747;84;21067;-73
2022/06/20 01:29:15;;;;;;;0.40;0.20;;;;;;;22.33;44.13;100017.04;1713030;82;21374;-74
2022/06/20 01:31:55;;;;;;;4.87;0.20;;;;;;;22.31;43.95;100013.78;1713611;82;21052;-74
2022/06/20 01:34:22;;;;;;;0.90;0.15;;;;;;;22.30;44.10;100015.70;1702536;81;21084;-75
2022/06/20 01:39:41;;;;;;;0.60;0.30;;;;;;;22.31;43.95;100019.22;1718825;82;21120;-79
2022/06/20 01:42:20;;;;;;;2.60;0.20;;;;;;;22.29;43.90;100011.34;1716053;82;21543;-72
2022/06/20 01:44:52;;;;;;;1.42;0.25;;;;;;;22.31;43.75;100019.22;1711593;80;21583;-73
2022/06/20 01:47:18;;;;;;;0.42;0.25;;;;;;;22.32;43.78;100018.95;1687699;83;21108;-73
2022/06/20 01:49:50;;;;;;;1.27;0.10;;;;;;;22.32;43.81;100017.59;1697010;83;21053;-71
2022/06/20 01:52:38;;;;;;;1.98;0.40;;;;;;;22.31;43.85;100017.86;1691920;83;21110;-80
2022/06/20 01:55:12;;;;;;;0.78;0.20;;;;;;;22.27;43.77;100013.52;1685924;83;21593;-73
2022/06/20 01:57:44;;;;;;;1.37;0.20;;;;;;;22.23;44.06;100013.77;1692834;83;21063;-76
2022/06/20 02:00:19;;;;;;;0.50;0.20;;;;;;;22.21;44.01;100009.16;1694153;83;21130;-74
2022/06/20 02:02:51;;;;;;;0.68;0.17;;;;;;;22.20;44.11;100007.52;1717568;82;21739;-72
2022/06/20 02:05:23;;;;;;;0.40;0.20;;;;;;;22.21;44.08;100015.11;1715717;82;21056;-74
2022/06/20 02:07:51;;;;;;;0.62;0.20;;;;;;;22.20;43.98;100019.73;1700191;82;21184;-75
2022/06/20 02:10:26;;;;;;;2.30;0.37;;;;;;;22.19;44.07;100023.55;1670967;84;21052;-74
2022/06/20 02:12:58;;;;;;;2.15;0.20;;;;;;;22.18;44.10;100017.84;1676029;84;21082;-76
2022/06/20 02:15:28;;;;;;;2.35;0.20;;;;;;;22.18;44.18;100024.63;1673730;84;21043;-76
2022/06/20 02:17:55;;;;;;;0.90;0.20;;;;;;;22.19;44.11;100023.55;1711724;82;21029;-76
2022/06/20 02:20:27;;;;;;;1.12;0.20;;;;;;;22.21;44.15;100032.76;1690549;84;21074;-73
2022/06/20 02:22:54;;;;;;;0.82;0.28;;;;;;;22.22;44.04;100028.42;1703501;82;21710;-74
2022/06/20 02:25:30;;;;;;;1.05;0.33;;;;;;;22.25;43.88;100037.41;1673998;83;21565;-73
2022/06/20 02:28:09;;;;;;;1.27;0.17;;;;;;;22.26;43.80;100041.74;1679533;83;21526;-73
2022/06/20 02:30:37;;;;;;;0.88;0.17;;;;;;;22.32;43.68;100047.45;1689981;83;21052;-72
2022/06/20 02:33:09;;;;;;;0.60;0.20;;;;;;;22.38;43.51;100047.43;1644020;85;21046;-76
2022/06/20 02:35:37;;;;;;;0.72;0.30;;;;;;;22.48;43.42;100046.87;1641020;86;21087;-71
2022/06/20 02:38:04;;;;;;;1.27;0.20;;;;;;;22.57;42.90;100042.27;1656324;85;21081;-72
2022/06/20 02:40:31;;;;;;;0.72;0.30;;;;;;;22.66;42.58;100055.00;1696604;83;21517;-74
2022/06/20 02:43:18;;;;;;;0.80;0.30;;;;;;;22.76;42.18;100056.06;1690471;83;21172;-74
2022/06/20 02:45:45;;;;;;;0.80;0.23;;;;;;;22.86;42.09;100056.82;1698958;82;21032;-74
2022/06/20 02:48:14;;;;;;;3.12;0.20;;;;;;;22.99;41.88;100052.70;1696002;83;21075;-75
2022/06/20 02:50:54;;;;;;;0.75;0.20;;;;;;;23.09;41.30;100054.59;1686717;83;21605;-75
2022/06/20 02:53:35;;;;;;;0.50;0.20;;;;;;;23.20;41.24;100060.80;1688193;83;21151;-74
2022/06/20 02:56:03;;;;;;;3.20;0.15;;;;;;;23.30;40.93;100062.94;1691453;83;20969;-73
2022/06/20 02:58:33;;;;;;;0.37;0.17;;;;;;;23.43;40.51;100061.52;1693323;83;21599;-74
2022/06/20 03:01:23;;;;;;;0.42;0.30;;;;;;;23.57;40.15;100056.81;1698740;83;21060;-73
2022/06/20 03:03:54;;;;;;;0.60;0.23;;;;;;;23.67;39.98;100066.25;1650116;85;21069;-73
2022/06/20 03:06:33;;;;;;;2.87;0.33;;;;;;;23.86;39.58;100065.86;1676492;83;21080;-75
2022/06/20 03:09:00;;;;;;;2.00;0.20;;;;;;;24.04;39.13;100067.10;1650189;85;21007;-73
2022/06/20 03:11:31;;;;;;;1.02;0.35;;;;;;;24.24;38.98;100070.73;1661949;83;21059;-73
2022/06/20 03:14:03;;;;;;;3.15;0.33;;;;;;;24.47;38.53;100066.46;1681452;83;21200;-76
2022/06/20 03:16:33;;;;;;;2.02;0.30;;;;;;;24.75;38.03;100065.36;1683866;83;21019;-77
2022/06/20 03:19:01;;;;;;;0.65;0.45;;;;;;;24.72;37.56;100020.43;1694758;83;21057;-73
2022/06/20 03:21:33;;;;;;;3.87;0.30;;;;;;;25.21;37.16;100073.81;1694575;83;21001;-73
2022/06/20 03:24:00;;;;;;;0.53;0.20;;;;;;;25.53;37.19;100071.52;1688630;80;21095;-72
2022/06/20 03:26:27;;;;;;;1.35;0.20;;;;;;;25.84;35.96;100069.95;1689959;83;21117;-74
2022/06/20 03:28:54;;;;;;;0.98;0.15;;;;;;;26.09;35.41;100072.58;1670538;83;21535;-73
2022/06/20 03:31:21;;;;;;;0.80;0.30;;;;;;;26.30;35.02;100067.61;1645613;85;21049;-73
2022/06/20 03:33:49;;;;;;;3.40;0.20;;;;;;;26.51;34.75;100075.68;1679857;81;21114;-74
2022/06/20 03:36:25;;;;;;;4.12;0.20;;;;;;;26.77;34.09;100068.41;1706105;83;21489;-72
2022/06/20 03:38:54;;;;;;;3.22;0.40;;;;;;;27.00;33.74;100072.84;1662918;84;21041;-77
2022/06/20 03:41:26;;;;;;;0.40;0.20;;;;;;;27.30;32.73;100069.25;1689350;83;21023;-74
2022/06/20 03:44:03;;;;;;;0.82;0.28;;;;;;;27.44;32.29;100071.14;1706559;83;20993;-73
2022/06/20 03:46:40;;;;;;;0.80;0.40;;;;;;;27.56;32.21;100070.86;1694316;83;21033;-77
2022/06/20 03:49:17;;;;;;;1.22;0.20;;;;;;;27.77;31.90;100056.70;1692821;83;21080;-72
2022/06/20 03:51:49;;;;;;;3.00;0.50;;;;;;;28.00;31.76;100056.16;1702314;83;21060;-73
2022/06/20 03:54:29;;;;;;;0.42;0.42;;;;;;;28.19;31.53;100050.47;1696586;83;21521;-74
2022/06/20 03:57:08;;;;;;;1.27;0.40;;;;;;;28.35;31.17;100045.41;1678022;83;21191;-73
2022/06/20 03:59:45;;;;;;;1.42;0.10;;;;;;;28.52;30.95;100033.75;1674747;83;21032;-75
2022/06/20 04:02:37;;;;;;;2.58;0.20;;;;;;;28.64;30.69;100029.83;1707723;82;21523;-72
2022/06/20 04:05:11;;;;;;;1.57;0.20;;;;;;;28.78;30.77;100030.28;1703294;82;21579;-73
2022/06/20 04:08:10;;;;;;;0.55;0.20;;;;;;;28.85;30.20;100025.14;1677179;84;21083;-72
2022/06/20 04:11:00;;;;;;;0.93;0.30;;;;;;;29.03;30.02;100021.31;1721437;82;21056;-73
2022/06/20 04:13:40;;;;;;;1.98;0.20;;;;;;;29.21;29.59;100021.36;1713394;82;20969;-73
2022/06/20 04:16:41;;;;;;;1.15;0.10;;;;;;;29.33;29.83;100016.60;1705992;82;21150;-73
2022/06/20 04:19:30;;;;;;;1.05;0.10;;;;;;;29.47;29.43;100002.16;1719796;82;21238;-72
2022/06/20 04:22:14;;;;;;;2.22;0.20;;;;;;;29.66;29.43;99993.59;1668517;84;21017;-73
2022/06/20 04:24:53;;;;;;;1.80;0.20;;;;;;;29.62;28.91;99986.56;1665329;84;21116;-75
2022/06/20 04:27:46;;;;;;;2.67;0.40;;;;;;;29.51;29.13;99992.14;1715875;82;21099;-74
2022/06/20 04:30:26;;;;;;;5.30;0.28;;;;;;;29.37;29.46;99988.20;1666480;84;21156;-75
2022/06/20 04:33:07;;;;;;;0.85;0.20;;;;;;;29.08;29.85;99992.36;1706515;82;21077;-75
2022/06/20 04:35:40;;;;;;;0.50;0.28;;;;;;;28.86;30.08;99983.69;1675688;84;21069;-75
2022/06/20 04:38:18;;;;;;;4.10;0.30;;;;;;;28.63;30.54;99977.51;1710928;82;21542;-76
2022/06/20 04:40:56;;;;;;;1.98;0.35;;;;;;;28.52;31.01;99969.33;1712024;82;21104;-74
2022/06/20 04:43:41;;;;;;;2.25;0.33;;;;;;;28.66;30.91;99969.20;1718940;82;21013;-75
2022/06/20 04:46:31;;;;;;;2.58;0.40;;;;;;;28.77;30.87;99964.23;1672740;83;22187;-78
2022/06/20 04:48:59;;;;;;;2.35;0.40;;;;;;;28.76;30.88;99960.66;1730537;82;21077;-74
2022/06/20 04:51:39;;;;;;;1.98;0.30;;;;;;;28.68;30.96;99961.45;1725935;81;21142;-75
2022/06/20 04:54:12;;;;;;;2.50;0.60;;;;;;;28.56;31.21;99954.40;1715020;82;21015;-74
2022/06/20 04:56:40;;;;;;;0.62;0.28;;;;;;;28.48;31.13;99955.95;1684747;83;21134;-74
2022/06/20 04:59:12;;;;;;;3.50;0.45;;;;;;;28.53;31.43;99955.28;1700199;82;21139;-77
2022/06/20 05:01:39;;;;;;;1.67;0.20;;;;;;;28.77;30.88;99960.92;1711412;82;21041;-74
2022/06/20 05:04:20;;;;;;;2.00;0.50;;;;;;;28.86;30.84;99958.20;1720494;82;21051;-73
2022/06/20 05:06:46;;;;;;;3.58;0.72;;;;;;;28.88;31.00;99955.37;1675178;84;21799;-74
2022/06/20 05:09:23;;;;;;;3.15;0.53;;;;;;;28.93;30.86;99952.48;1711992;82;21049;-71
2022/06/20 05:12:07;;;;;;;0.78;0.20;;;;;;;29.02;30.97;99953.05;1710826;81;21083;-63
2022/06/20 05:15:16;;;;;;;0.53;0.25;;;;;;;29.40;30.62;99955.17;1672380;84;21049;-63
2022/06/20 05:17:45;;;;;;;3.20;0.23;;;;;;;29.75;29.96;99960.08;1702638;82;21016;-64
2022/06/20 05:20:26;;;;;;;1.50;0.10;;;;;;;30.05;29.36;99962.34;1683969;84;21590;-62
2022/06/20 05:23:02;;;;;;;0.95;0.20;;;;;;;30.22;29.15;99955.17;1720788;82;21542;-63
2022/06/20 05:25:31;;;;;;;0.40;0.20;;;;;;;30.35;29.16;99963.80;1686063;83;21055;-67
2022/06/20 05:28:04;;;;;;;0.72;0.20;;;;;;;30.46;28.90;99965.03;1689986;83;21083;-66
2022/06/20 05:30:34;;;;;;;2.27;0.37;;;;;;;29.67;28.97;99822.20;1691779;83;21553;-68
2022/06/20 05:33:33;;;;;;;1.40;0.50;;;;;;;30.63;29.00;99964.71;1698082;83;21043;-67
2022/06/20 05:36:08;;;;;;;0.75;0.20;;;;;;;30.72;28.74;99955.81;1691839;83;21028;-63
2022/06/20 05:38:43;;;;;;;0.30;0.20;;;;;;;30.90;28.70;99949.66;1691632;83;21031;-69
2022/06/20 05:41:15;;;;;;;2.90;0.40;;;;;;;31.00;28.92;99955.34;1696070;83;20978;-67
2022/06/20 05:43:42;;;;;;;3.90;0.40;;;;;;;31.12;28.47;99955.97;1689884;83;21067;-64
2022/06/20 05:46:29;;;;;;;0.72;0.20;;;;;;;30.91;28.81;99949.09;1694059;83;21041;-63
2022/06/20 05:49:07;;;;;;;0.30;0.20;;;;;;;30.71;29.30;99950.09;1673375;83;21068;-63
2022/06/20 05:51:38;;;;;;;0.98;0.20;;;;;;;30.53;28.76;99948.58;1689824;83;21050;-61
2022/06/20 05:54:16;;;;;;;0.60;0.20;;;;;;;30.34;29.33;99941.55;1674834;83;21098;-64
2022/06/20 05:56:48;;;;;;;2.05;0.13;;;;;;;30.46;29.67;99944.98;1675524;83;21076;-61
2022/06/20 05:59:29;;;;;;;1.07;0.20;;;;;;;30.68;29.17;99937.57;1663958;84;21123;-62
2022/06/20 06:02:19;;;;;;;2.75;0.50;;;;;;;30.78;28.46;99930.28;1678540;84;21117;-62
2022/06/20 06:05:00;;;;;;;0.40;0.20;;;;;;;30.77;28.39;99917.11;1669343;84;21138;-63
2022/06/20 06:07:38;;;;;;;2.55;0.20;;;;;;;30.73;28.40;99905.17;1676857;84;21034;-62
2022/06/20 06:10:22;;;;;;;1.02;0.20;;;;;;;30.74;28.40;99900.47;1665338;84;21551;-62
2022/06/20 06:12:54;;;;;;;0.75;0.20;;;;;;;30.74;27.88;99901.84;1641026;85;21139;-63
2022/06/20 06:16:46;;;;;;;2.95;0.30;;;;;;;30.53;27.47;99889.45;1637288;85;21518;-62
2022/06/20 06:18:16;;;;;;;1.42;0.20;;;;;;;30.35;27.70;99892.31;1641748;85;21051;-62
2022/06/20 06:20:46;;;;;;;1.15;0.30;;;;;;;30.36;27.86;99889.78;1654603;85;21046;-61
2022/06/20 06:23:14;;;;;;;3.40;0.28;;;;;;;30.47;27.65;99884.72;1655651;85;21212;-63
2022/06/20 06:25:43;;;;;;;1.47;0.25;;;;;;;30.54;27.20;99878.13;1657821;85;21153;-64
2022/06/20 06:28:17;;;;;;;4.05;0.60;;;;;;;30.42;27.41;99871.16;1656115;85;21050;-66
2022/06/20 06:30:57;;;;;;;1.57;0.40;;;;;;;30.30;27.67;99868.30;1656126;85;21034;-63
2022/06/20 06:33:37;;;;;;;1.65;0.40;;;;;;;30.25;27.99;99871.48;1652546;84;21229;-67
2022/06/20 06:36:13;;;;;;;5.20;0.60;;;;;;;30.44;27.60;99865.58;1656353;85;21049;-66
2022/06/20 06:39:03;;;;;;;2.80;0.80;;;;;;;30.48;28.42;99861.59;1640414;85;21079;-66
2022/06/20 06:41:34;;;;;;;1.25;0.70;;;;;;;30.58;27.40;99854.89;1647493;85;21761;-71
2022/06/20 06:44:08;;;;;;;7.92;0.72;;;;;;;30.55;27.33;99861.84;1649810;85;21762;-69
2022/06/20 06:46:38;;;;;;;1.45;0.55;;;;;;;30.45;27.58;99857.55;1640171;85;21644;-67
2022/06/20 06:49:25;;;;;;;6.33;0.75;;;;;;;30.34;27.63;99860.45;1652085;85;21077;-65
2022/06/20 06:52:09;;;;;;;4.22;0.93;;;;;;;30.27;27.69;99855.47;1643590;85;21718;-68
2022/06/20 06:54:56;;;;;;;1.72;1.02;;;;;;;30.33;28.02;99848.41;1647631;85;21520;-66
2022/06/20 06:57:31;;;;;;;2.60;0.35;;;;;;;30.39;27.42;99844.34;1650854;85;21110;-66
2022/06/20 07:00:06;;;;;;;4.37;0.55;;;;;;;30.51;27.22;99839.48;1652262;85;21111;-66
2022/06/20 07:02:43;;;;;;;2.63;0.90;;;;;;;30.70;27.18;99848.06;1647617;85;21400;-67
2022/06/20 07:05:24;;;;;;;1.20;0.60;;;;;;;30.75;26.73;99840.99;1651308;85;21104;-68
2022/06/20 07:08:02;;;;;;;2.02;0.78;;;;;;;30.78;27.02;99839.50;1650403;85;21565;-65
2022/06/20 07:10:55;;;;;;;1.25;0.85;;;;;;;31.10;26.41;99841.28;1645803;85;21046;-64
2022/06/20 07:13:41;;;;;;;1.62;0.62;;;;;;;31.43;26.36;99841.27;1640945;85;21673;-65
2022/06/20 07:16:23;;;;;;;1.25;0.55;;;;;;;31.70;25.29;99830.77;1645285;84;21015;-64
2022/06/20 07:18:54;;;;;;;3.87;0.40;;;;;;;31.82;25.11;99823.91;1652697;85;21133;-65
2022/06/20 07:21:24;;;;;;;2.70;0.53;;;;;;;31.89;25.35;99824.14;1647344;85;21051;-67
2022/06/20 07:24:18;;;;;;;2.37;0.40;;;;;;;32.10;24.95;99832.87;1666003;85;21027;-66
2022/06/20 07:27:06;;;;;;;5.65;0.30;;;;;;;32.14;23.80;99832.43;1656952;85;21106;-65
2022/06/20 07:29:43;;;;;;;2.52;0.30;;;;;;;32.17;23.74;99836.68;1651014;84;21074;-64
2022/06/20 07:32:16;;;;;;;0.98;0.70;;;;;;;32.15;24.01;99839.53;1646614;84;21051;-67
2022/06/20 07:34:53;;;;;;;2.15;0.30;;;;;;;32.16;24.28;99832.88;1668808;84;20983;-64
2022/06/20 07:37:49;;;;;;;4.67;0.50;;;;;;;32.17;24.08;99833.92;1667814;85;21050;-66
2022/06/20 07:40:29;;;;;;;1.82;0.35;;;;;;;32.18;24.08;99820.94;1656829;84;21136;-64
2022/06/20 07:43:04;;;;;;;0.98;0.33;;;;;;;31.95;24.30;99821.38;1650028;85;22225;-65
2022/06/20 07:45:41;;;;;;;2.00;0.55;;;;;;;31.78;24.01;99810.59;1685521;83;21088;-66
2022/06/20 07:48:15;;;;;;;4.72;0.17;;;;;;;31.67;24.50;99828.73;1691315;83;21067;-66
2022/06/20 07:50:59;;;;;;;3.40;0.20;;;;;;;31.65;24.39;99822.73;1691569;83;21045;-65
2022/06/20 07:53:43;;;;;;;3.67;0.20;;;;;;;31.59;24.63;99827.11;1677249;83;21048;-66
2022/06/20 07:56:15;;;;;;;2.72;0.23;;;;;;;31.53;24.81;99824.35;1671665;82;21084;-65
2022/06/20 07:58:48;;;;;;;2.35;0.17;;;;;;;31.47;24.56;99813.30;1681867;83;21603;-65
2022/06/20 08:01:31;;;;;;;4.50;0.20;;;;;;;31.32;24.38;99820.23;1685160;83;21009;-67
2022/06/20 08:04:06;;;;;;;3.08;0.37;;;;;;;31.19;24.85;99817.22;1678124;83;21197;-70
2022/06/20 08:06:54;;;;;;;1.98;0.20;;;;;;;31.17;24.96;99817.56;1665720;83;21079;-66
2022/06/20 08:09:47;;;;;;;3.10;0.10;;;;;;;31.18;24.84;99815.63;1686721;83;21519;-67
2022/06/20 08:13:11;;;;;;;0.93;0.10;;;;;;;31.20;24.84;99810.01;1682003;83;21064;-66
2022/06/20 08:15:50;;;;;;;1.52;0.10;;;;;;;31.17;24.90;99803.00;1684027;83;21116;-66
2022/06/20 08:18:17;;;;;;;1.90;0.10;;;;;;;31.17;25.17;99809.30;1683323;83;21087;-68
2022/06/20 08:20:48;;;;;;;0.57;0.20;;;;;;;31.17;25.32;99806.55;1684143;83;21139;-69
2022/06/20 08:23:26;;;;;;;5.30;0.10;;;;;;;31.21;25.33;99805.30;1664300;84;21584;-66
2022/06/20 08:25:57;;;;;;;1.22;0.20;;;;;;;31.26;25.40;99812.55;1683698;83;21061;-66
2022/06/20 08:28:29;;;;;;;2.22;0.20;;;;;;;31.22;24.78;99803.59;1692954;83;21608;-67
2022/06/20 08:31:00;;;;;;;1.37;0.30;;;;;;;31.02;25.00;99796.19;1687763;83;21101;-66
2022/06/20 08:33:35;;;;;;;4.03;0.20;;;;;;;30.80;25.41;99784.40;1689361;83;21044;-68
2022/06/20 08:36:26;;;;;;;1.73;0.20;;;;;;;30.57;25.51;99785.34;1687453;83;21615;-69
2022/06/20 08:39:18;;;;;;;4.22;0.20;;;;;;;30.52;25.72;99800.66;1694026;83;21329;-69
2022/06/20 08:42:26;;;;;;;0.90;0.30;;;;;;;30.50;26.06;99801.56;1691713;83;21041;-68
2022/06/20 08:45:28;;;;;;;3.25;0.15;;;;;;;30.60;26.13;99798.98;1689135;83;21092;-68
2022/06/20 08:48:12;;;;;;;2.62;0.20;;;;;;;30.70;26.09;99804.63;1689762;83;21604;-67
2022/06/20 08:51:05;;;;;;;2.10;0.20;;;;;;;30.70;25.94;99795.01;1692045;83;21093;-68
2022/06/20 08:54:04;;;;;;;5.50;0.30;;;;;;;30.68;25.95;99795.34;1690829;83;21020;-66
2022/06/20 08:56:50;;;;;;;2.45;0.30;;;;;;;30.74;26.14;99798.14;1684950;80;21073;-68
2022/06/20 08:59:42;;;;;;;5.67;0.20;;;;;;;30.85;25.67;99790.25;1681267;83;21621;-66
2022/06/20 09:02:37;;;;;;;14.33;0.62;;;;;;;30.90;25.76;99784.58;1706045;82;21040;-66
2022/06/20 09:05:09;;;;;;;1.55;0.30;;;;;;;30.88;25.88;99784.08;1706027;82;21108;-67
2022/06/20 09:07:59;;;;;;;2.65;0.25;;;;;;;30.89;26.17;99780.75;1704897;82;21204;-69
2022/06/20 09:11:09;;;;;;;0.30;0.10;;;;;;;30.93;26.04;99781.70;1656445;82;21439;-69
2022/06/20 09:13:58;;;;;;;6.50;0.20;;;;;;;30.86;26.16;99781.66;1722221;82;21116;-67
2022/06/20 09:17:15;;;;;;;0.93;0.10;;;;;;;30.80;26.08;99769.85;1712621;82;21104;-66
2022/06/20 09:20:03;;;;;;;1.47;0.20;;;;;;;30.77;26.30;99765.81;1702094;82;21084;-68
2022/06/20 09:23:00;;;;;;;1.87;0.20;;;;;;;30.68;26.16;99755.45;1711962;80;20992;-66
2022/06/20 09:26:01;;;;;;;1.15;0.20;;;;;;;30.59;26.29;99750.05;1702278;83;21459;-66
2022/06/20 09:28:56;;;;;;;2.70;0.30;;;;;;;30.56;26.33;99749.34;1679450;83;21116;-69
2022/06/20 09:31:57;;;;;;;4.00;0.33;;;;;;;30.53;26.45;99747.83;1698916;83;21523;-67
2022/06/20 09:35:07;;;;;;;0.95;0.20;;;;;;;30.47;26.74;99751.36;1711515;82;21618;-67
2022/06/20 09:38:03;;;;;;;2.42;0.20;;;;;;;30.49;26.80;99751.03;1691253;83;21520;-67
2022/06/20 09:41:01;;;;;;;1.33;0.10;;;;;;;30.57;26.69;99759.22;1687074;83;21184;-67
2022/06/20 09:43:47;;;;;;;2.30;0.10;;;;;;;30.66;26.37;99761.87;1670448;83;21088;-67
2022/06/20 09:46:37;;;;;;;1.37;0.40;;;;;;;30.63;26.35;99757.86;1687669;83;21587;-67
2022/06/20 09:49:23;;;;;;;1.02;0.20;;;;;;;30.65;26.23;99754.78;1693209;83;21133;-67
2022/06/20 09:52:22;;;;;;;1.40;0.10;;;;;;;30.66;26.21;99763.24;1685355;83;21099;-74
2022/06/20 09:55:06;;;;;;;1.57;0.10;;;;;;;30.65;26.58;99758.90;1682622;83;21088;-70
2022/06/20 09:58:09;;;;;;;0.62;0.20;;;;;;;30.70;26.16;99758.67;1677835;83;21294;-70
2022/06/20 10:00:52;;;;;;;1.40;0.20;;;;;;;30.77;26.32;99747.92;1659721;83;21501;-66
2022/06/20 10:03:30;;;;;;;5.67;0.10;;;;;;;30.88;25.84;99768.16;1687216;83;21120;-68
2022/06/20 10:06:19;;;;;;;2.83;0.10;;;;;;;30.89;25.94;99755.98;1685621;83;21087;-66
2022/06/20 10:09:08;;;;;;;2.25;0.10;;;;;;;30.95;25.79;99743.65;1683174;83;21119;-68
2022/06/20 10:11:46;;;;;;;2.10;0.10;;;;;;;31.06;25.70;99739.32;1674532;83;21062;-66
2022/06/20 10:14:21;;;;;;;1.60;0.10;;;;;;;31.15;25.58;99731.77;1680494;83;21495;-68
2022/06/20 10:17:32;;;;;;;2.10;1.20;;;;;;;31.18;25.50;99728.34;1645107;83;21023;-68
2022/06/20 10:20:41;;;;;;;2.90;0.10;;;;;;;31.12;25.47;99714.58;1683752;83;21110;-69
2022/06/20 10:23:31;;;;;;;2.77;0.10;;;;;;;30.98;25.78;99714.09;1681745;82;21101;-71
2022/06/20 10:26:18;;;;;;;3.40;0.10;;;;;;;30.99;25.98;99707.45;1685087;83;21070;-68
2022/06/20 10:28:49;;;;;;;1.20;0.10;;;;;;;31.10;25.82;99708.62;1679649;83;21077;-67
2022/06/20 10:31:39;;;;;;;0.62;0.10;;;;;;;31.14;25.28;99716.41;1685159;83;21061;-65
2022/06/20 10:34:26;;;;;;;1.70;0.20;;;;;;;31.11;25.64;99707.45;1685741;83;21050;-67
2022/06/20 10:37:07;;;;;;;2.10;0.23;;;;;;;31.12;25.41;99702.20;1686568;83;21131;-69
2022/06/20 10:39:46;;;;;;;10.65;0.65;;;;;;;31.17;25.57;99711.59;1692726;83;21505;-69
2022/06/20 10:42:36;;;;;;;4.90;0.10;;;;;;;31.24;25.78;99709.08;1685098;83;21054;-72
2022/06/20 10:45:32;;;;;;;1.72;0.10;;;;;;;31.33;25.65;99709.56;1672305;82;21057;-71
2022/06/20 10:48:33;;;;;;;0.75;0.05;;;;;;;31.37;25.05;99706.34;1680275;83;21062;-68
2022/06/20 10:51:40;;;;;;;0.65;0.30;;;;;;;31.33;24.99;99684.78;1683872;83;21022;-67
2022/06/20 10:54:34;;;;;;;1.37;0.10;;;;;;;31.19;25.29;99699.69;1684431;83;21040;-69
2022/06/20 10:57:30;;;;;;;0.80;0.10;;;;;;;31.15;25.18;99702.88;1700660;82;21104;-70
2022/06/20 11:00:12;;;;;;;7.37;0.10;;;;;;;31.04;25.52;99696.20;1717606;82;21092;-71
2022/06/20 11:03:06;;;;;;;0.98;0.20;;;;;;;31.03;25.60;99684.98;1705903;82;21112;-77
2022/06/20 11:05:46;;;;;;;3.10;0.20;;;;;;;31.08;25.47;99688.89;1705294;82;21100;-75
2022/06/20 11:08:18;;;;;;;1.72;0.15;;;;;;;31.15;25.47;99686.35;1707147;82;21107;-73
2022/06/20 11:11:10;;;;;;;1.15;0.10;;;;;;;31.22;25.39;99676.95;1723280;82;21651;-82
2022/06/20 11:13:52;;;;;;;2.60;0.17;;;;;;;31.28;25.26;99665.73;1713270;82;21013;-75
2022/06/20 11:17:05;;;;;;;0.68;0.10;;;;;;;31.36;24.97;99659.30;1715475;82;21089;-74
2022/06/20 11:19:40;;;;;;;0.20;0.05;;;;;;;31.42;24.98;99657.35;1710319;82;21053;-83
2022/06/20 11:22:31;;;;;;;5.60;0.30;;;;;;;31.46;24.82;99658.84;1711791;81;21092;-78
2022/06/20 11:25:07;;;;;;;0.30;0.10;;;;;;;31.46;24.89;99657.47;1711545;83;21060;-74
2022/06/20 11:27:42;;;;;;;0.45;0.10;;;;;;;31.46;24.86;99649.76;1687074;83;21136;-73
2022/06/20 11:30:22;;;;;;;2.22;0.42;;;;;;;31.48;25.07;99651.65;1682726;83;21497;-70
2022/06/20 11:33:11;;;;;;;2.35;0.30;;;;;;;31.50;24.70;99647.97;1692390;83;21100;-76
2022/06/20 11:35:50;;;;;;;2.25;0.10;;;;;;;31.52;24.61;99649.22;1683963;83;21588;-76
2022/06/20 11:38:41;;;;;;;2.00;0.20;;;;;;;31.57;24.69;99653.67;1694049;83;21093;-73
2022/06/20 11:43:55;;;;;;;1.80;0.10;;;;;;;31.50;24.39;99609.42;1801692;78;22863;-80
2022/06/20 11:46:45;;;;;;;3.72;0.35;;;;;;;31.64;24.41;99649.77;1700119;82;20999;-70
2022/06/20 11:49:42;;;;;;;2.85;0.10;;;;;;;31.59;24.37;99646.70;1669476;82;21077;-72
2022/06/20 11:52:43;;;;;;;0.25;0.10;;;;;;;31.54;24.69;99642.79;1726712;83;21098;-79
2022/06/20 11:55:49;;;;;;;0.40;0.10;;;;;;;31.57;24.59;99632.47;1720616;81;22084;-78
2022/06/20 11:58:53;;;;;;;0.80;0.10;;;;;;;31.61;24.76;99636.13;1728154;81;21894;-80
2022/06/20 12:01:24;;;;;;;3.20;0.08;;;;;;;31.66;24.64;99630.15;1709142;82;21045;-78
2022/06/20 12:04:06;;;;;;;1.75;0.10;;;;;;;31.68;24.57;99631.98;1709624;82;21430;-79
2022/06/20 12:06:41;;;;;;;2.15;0.10;;;;;;;31.69;24.60;99620.61;1711202;81;21096;-81
2022/06/20 12:09:28;;;;;;;0.60;0.10;;;;;;;31.72;24.56;99614.97;1702644;81;21093;-80
2022/06/20 12:12:21;;;;;;;2.02;0.10;;;;;;;31.71;24.58;99615.56;1704729;81;21501;-80
2022/06/20 12:14:56;;;;;;;0.30;0.10;;;;;;;31.72;24.59;99600.64;1723785;81;21058;-81
2022/06/20 12:17:35;;;;;;;0.47;0.28;;;;;;;31.75;24.64;99596.37;1719730;81;21093;-80
2022/06/20 12:23:20;;;;;;;1.15;0.10;;;;;;;31.73;24.67;99594.55;1725538;81;21124;-74
2022/06/20 12:25:55;;;;;;;4.28;0.10;;;;;;;31.75;24.73;99590.29;1722163;81;21045;-81
2022/06/20 12:28:35;;;;;;;2.17;0.30;;;;;;;31.73;24.62;99585.70;1723553;81;21616;-79
2022/06/20 12:31:21;;;;;;;1.37;0.10;;;;;;;31.72;24.64;99584.12;1716196;83;21085;-80
2022/06/20 12:33:55;;;;;;;1.22;0.10;;;;;;;31.71;24.62;99575.61;1709320;80;21505;-80
2022/06/20 12:36:42;;;;;;;5.12;0.20;;;;;;;31.72;24.47;99577.78;1689794;83;21020;-77
2022/06/20 12:39:38;;;;;;;0.85;0.10;;;;;;;31.71;24.45;99571.48;1697688;83;21045;-82
2022/06/20 12:42:33;;;;;;;2.62;0.10;;;;;;;31.69;24.27;99563.34;1694910;83;21690;-82